Time;durP1;ratioP1;P1;durP2;ratioP2;P2;SDS_P1;SDS_P2;PMS_P1;PMS_P2;Temp;Humidity;BMP_temperature;BMP_pressure;BME280_temperature;BME280_humidity;BME280_pressure;Samples;Min_cycle;Max_cycle;Signal;HPM_P1;HPM_P2
2022/03/18 00:01:48;;;;;;;;;;;12.00;53.70;;;;;;5065780;28;19971;-86
2022/03/18 00:04:14;;;;;;;;;;;12.00;53.60;;;;;;5076259;28;20374;-86
2022/03/18 00:06:40;;;;;;;;;;;11.90;53.50;;;;;;5061443;28;19917;-86
2022/03/18 00:09:06;;;;;;;;;;;11.90;53.70;;;;;;5055964;28;20007;-86
2022/03/18 00:11:31;;;;;;;;;;;11.90;54.20;;;;;;5056431;28;20003;-86
2022/03/18 00:13:58;;;;;;;;;;;11.80;54.40;;;;;;5056207;28;19913;-86
2022/03/18 00:16:24;;;;;;;;;;;11.70;54.30;;;;;;5066976;28;19960;-86
2022/03/18 00:18:50;;;;;;;;;;;11.60;54.60;;;;;;5068180;28;19917;-86
2022/03/18 00:21:16;;;;;;;;;;;11.70;54.40;;;;;;5056055;28;19955;-86
2022/03/18 00:23:41;;;;;;;;;;;11.70;54.50;;;;;;5055908;28;19912;-86
2022/03/18 00:26:07;;;;;;;;;;;11.60;55.20;;;;;;5065661;28;19912;-86
2022/03/18 00:28:33;;;;;;;;;;;11.40;56.80;;;;;;5070659;28;20050;-86
2022/03/18 00:30:58;;;;;;;;;;;11.30;57.70;;;;;;5044315;28;20333;-86
2022/03/18 00:33:25;;;;;;;;;;;11.10;57.40;;;;;;5075787;28;19983;-86
2022/03/18 00:35:51;;;;;;;;;;;11.10;57.40;;;;;;5068509;28;19912;-86
2022/03/18 00:38:16;;;;;;;;;;;11.00;57.60;;;;;;5055449;28;19909;-86
2022/03/18 00:40:44;;;;;;;;;;;11.00;57.60;;;;;;5055544;28;20278;-86
2022/03/18 00:43:10;;;;;;;;;;;11.00;57.40;;;;;;5055611;28;19958;-86
2022/03/18 00:45:36;;;;;;;;;;;11.10;57.00;;;;;;5055732;28;19956;-87
2022/03/18 00:53:30;;;;;;;;;;;11.10;57.00;;;;;;5055789;28;19920;-86
2022/03/18 00:55:55;;;;;;;;;;;10.90;57.20;;;;;;5062639;28;19912;-86
2022/03/18 00:58:21;;;;;;;;;;;10.90;58.30;;;;;;5072567;28;19915;-86
2022/03/18 01:00:46;;;;;;;;;;;10.90;57.60;;;;;;5055186;28;19912;-86
2022/03/18 01:03:15;;;;;;;;;;;10.80;57.80;;;;;;5063312;28;19913;-86
2022/03/18 01:05:41;;;;;;;;;;;10.80;58.80;;;;;;5075212;28;19908;-87
2022/03/18 01:08:07;;;;;;;;;;;10.70;58.90;;;;;;5067008;28;19974;-86
2022/03/18 01:10:33;;;;;;;;;;;10.70;58.40;;;;;;5054988;28;19908;-86
2022/03/18 01:12:58;;;;;;;;;;;10.70;58.60;;;;;;5055140;28;19990;-86
2022/03/18 01:15:24;;;;;;;;;;;10.70;58.90;;;;;;5055031;28;19996;-86
2022/03/18 01:17:49;;;;;;;;;;;10.70;58.30;;;;;;5056069;28;19924;-86
2022/03/18 01:20:15;;;;;;;;;;;10.60;57.90;;;;;;5054747;28;19919;-86
2022/03/18 01:22:40;;;;;;;;;;;10.60;57.50;;;;;;5055013;28;19919;-86
2022/03/18 01:25:06;;;;;;;;;;;10.60;56.90;;;;;;5055060;28;19948;-86
2022/03/18 01:27:32;;;;;;;;;;;10.60;56.90;;;;;;5054811;28;20377;-86
2022/03/18 01:29:57;;;;;;;;;;;10.60;56.60;;;;;;5054369;28;19920;-87
2022/03/18 01:32:23;;;;;;;;;;;10.70;56.30;;;;;;5054803;28;20408;-86
2022/03/18 01:34:49;;;;;;;;;;;10.70;56.40;;;;;;5054691;28;19909;-86
2022/03/18 01:37:14;;;;;;;;;;;10.80;56.60;;;;;;5054681;28;19912;-86
2022/03/18 01:39:40;;;;;;;;;;;10.80;56.20;;;;;;5054378;28;19924;-86
2022/03/18 01:42:05;;;;;;;;;;;10.80;56.20;;;;;;5054534;28;19921;-86
2022/03/18 01:44:37;;;;;;;;;;;10.80;56.10;;;;;;5054429;28;19912;-86
2022/03/18 01:47:03;;;;;;;;;;;10.70;56.60;;;;;;5055459;28;19913;-86
2022/03/18 01:49:28;;;;;;;;;;;10.50;57.30;;;;;;5054142;28;20363;-86
2022/03/18 01:51:54;;;;;;;;;;;10.50;57.40;;;;;;5054456;28;20010;-86
2022/03/18 01:57:03;;;;;;;;;;;10.40;57.80;;;;;;5054317;28;19916;-86
2022/03/18 01:59:29;;;;;;;;;;;10.30;58.10;;;;;;5053819;28;19913;-86
2022/03/18 02:01:54;;;;;;;;;;;10.20;57.30;;;;;;5060624;28;20007;-86
2022/03/18 02:04:20;;;;;;;;;;;10.20;57.40;;;;;;5073959;28;20014;-86
2022/03/18 02:06:46;;;;;;;;;;;10.20;57.20;;;;;;5074229;28;19970;-86
2022/03/18 02:09:11;;;;;;;;;;;10.20;57.10;;;;;;5065830;28;19996;-86
2022/03/18 02:11:37;;;;;;;;;;;10.10;57.30;;;;;;5062115;28;20026;-86
2022/03/18 02:14:03;;;;;;;;;;;10.10;57.40;;;;;;5073839;28;20339;-86
2022/03/18 02:16:32;;;;;;;;;;;10.10;57.40;;;;;;5070047;28;19956;-86
2022/03/18 02:18:57;;;;;;;;;;;10.10;57.60;;;;;;5065415;28;20126;-86
2022/03/18 02:21:24;;;;;;;;;;;10.00;58.10;;;;;;5053816;28;19908;-86
2022/03/18 02:23:50;;;;;;;;;;;10.00;58.20;;;;;;5061192;28;19928;-86
2022/03/18 02:26:15;;;;;;;;;;;10.00;58.30;;;;;;5073633;28;19909;-86
2022/03/18 02:28:41;;;;;;;;;;;10.10;57.90;;;;;;5063164;28;19913;-86
2022/03/18 02:31:07;;;;;;;;;;;10.10;57.80;;;;;;5053613;28;19909;-86
2022/03/18 02:33:32;;;;;;;;;;;10.10;57.90;;;;;;5054607;28;20366;-86
2022/03/18 02:35:58;;;;;;;;;;;10.10;57.80;;;;;;5053515;28;20378;-86
2022/03/18 02:38:24;;;;;;;;;;;10.10;58.10;;;;;;5054633;28;20373;-86
2022/03/18 02:40:49;;;;;;;;;;;10.10;58.40;;;;;;5053253;28;19920;-86
2022/03/18 02:43:15;;;;;;;;;;;10.00;58.80;;;;;;5053384;28;20002;-86
2022/03/18 02:45:40;;;;;;;;;;;10.10;58.80;;;;;;5052981;28;19963;-86
2022/03/18 02:48:06;;;;;;;;;;;10.00;58.70;;;;;;5066965;28;19974;-86
2022/03/18 02:50:32;;;;;;;;;;;10.10;58.80;;;;;;5073351;28;19914;-86
2022/03/18 02:52:57;;;;;;;;;;;10.10;59.00;;;;;;5061930;28;20344;-86
2022/03/18 02:55:23;;;;;;;;;;;10.10;59.10;;;;;;5053086;28;20334;-86
2022/03/18 02:57:48;;;;;;;;;;;10.10;58.60;;;;;;5053254;28;20313;-86
2022/03/18 03:00:16;;;;;;;;;;;10.10;58.50;;;;;;5053223;28;19912;-86
2022/03/18 03:02:41;;;;;;;;;;;10.20;58.70;;;;;;5054440;28;19913;-86
2022/03/18 03:08:12;;;;;;;;;;;10.40;57.60;;;;;;5011411;28;19975;-87
2022/03/18 03:10:38;;;;;;;;;;;10.60;57.00;;;;;;5011150;28;19913;-86
2022/03/18 03:13:06;;;;;;;;;;;10.70;56.40;;;;;;5021486;28;20386;-86
2022/03/18 03:15:32;;;;;;;;;;;10.80;56.00;;;;;;5033877;28;19932;-86
2022/03/18 03:17:57;;;;;;;;;;;10.70;56.00;;;;;;5035300;28;20370;-86
2022/03/18 03:20:23;;;;;;;;;;;10.60;56.40;;;;;;5053016;28;19963;-86
2022/03/18 03:22:49;;;;;;;;;;;10.60;56.60;;;;;;5052963;28;20425;-86
2022/03/18 03:25:14;;;;;;;;;;;10.50;56.70;;;;;;5057391;28;19935;-86
2022/03/18 03:27:40;;;;;;;;;;;10.50;56.90;;;;;;5058744;28;19917;-86
2022/03/18 03:30:07;;;;;;;;;;;10.40;56.70;;;;;;5057010;28;19909;-86
2022/03/18 03:32:32;;;;;;;;;;;10.40;56.50;;;;;;5057948;28;19999;-86
2022/03/18 03:34:59;;;;;;;;;;;10.40;56.70;;;;;;5056934;28;20324;-87
2022/03/18 03:37:25;;;;;;;;;;;10.40;56.60;;;;;;5056601;28;19913;-86
2022/03/18 03:39:51;;;;;;;;;;;10.40;56.30;;;;;;5056813;28;19912;-87
2022/03/18 03:42:17;;;;;;;;;;;10.50;55.80;;;;;;5057064;28;20047;-86
2022/03/18 03:44:43;;;;;;;;;;;10.50;55.90;;;;;;5076665;28;19917;-86
2022/03/18 03:47:08;;;;;;;;;;;10.50;55.90;;;;;;5062904;28;19916;-86
2022/03/18 03:49:34;;;;;;;;;;;10.50;55.80;;;;;;5057708;28;19913;-86
2022/03/18 03:51:59;;;;;;;;;;;10.50;55.60;;;;;;5056614;28;20452;-86
2022/03/18 03:54:27;;;;;;;;;;;10.50;55.90;;;;;;5072044;28;19908;-86
2022/03/18 03:56:53;;;;;;;;;;;10.60;56.10;;;;;;5065341;28;19913;-86
2022/03/18 03:59:20;;;;;;;;;;;10.70;55.90;;;;;;5056729;28;19909;-86
2022/03/18 04:01:45;;;;;;;;;;;10.60;56.00;;;;;;5056485;28;19916;-86
2022/03/18 04:04:11;;;;;;;;;;;10.60;56.20;;;;;;5069397;28;19912;-86
2022/03/18 04:06:37;;;;;;;;;;;10.60;56.40;;;;;;5067517;28;20003;-86
2022/03/18 04:09:03;;;;;;;;;;;10.60;56.50;;;;;;5056253;28;20381;-86
2022/03/18 04:11:29;;;;;;;;;;;10.60;56.10;;;;;;5056303;28;19909;-86
2022/03/18 04:13:55;;;;;;;;;;;10.60;56.70;;;;;;5070599;28;19908;-87
2022/03/18 04:16:21;;;;;;;;;;;10.60;56.70;;;;;;5069605;28;19924;-87
2022/03/18 04:18:47;;;;;;;;;;;10.70;56.20;;;;;;5067589;28;19909;-86
2022/03/18 04:21:13;;;;;;;;;;;10.70;55.50;;;;;;5076067;28;19913;-86
2022/03/18 04:23:40;;;;;;;;;;;10.80;54.70;;;;;;5063384;28;20251;-86
2022/03/18 04:26:05;;;;;;;;;;;10.90;54.10;;;;;;5056027;28;19912;-86
2022/03/18 04:28:31;;;;;;;;;;;11.00;54.00;;;;;;5055973;28;19909;-86
2022/03/18 04:30:56;;;;;;;;;;;11.00;53.60;;;;;;5056036;28;19909;-86
2022/03/18 04:33:22;;;;;;;;;;;11.00;53.70;;;;;;5056943;28;20395;-86
2022/03/18 04:35:47;;;;;;;;;;;10.90;54.10;;;;;;5055608;28;20350;-86
2022/03/18 04:38:13;;;;;;;;;;;10.70;54.50;;;;;;5055735;28;19913;-86
2022/03/18 04:40:38;;;;;;;;;;;10.60;55.00;;;;;;5055531;28;19920;-86
2022/03/18 04:43:04;;;;;;;;;;;10.60;55.00;;;;;;5072733;28;19916;-86
2022/03/18 04:45:30;;;;;;;;;;;10.50;55.20;;;;;;5075605;28;19912;-85
2022/03/18 04:47:56;;;;;;;;;;;10.40;55.40;;;;;;5057640;28;19919;-86
2022/03/18 04:50:22;;;;;;;;;;;10.40;55.50;;;;;;5055581;28;19908;-86
2022/03/18 04:52:47;;;;;;;;;;;10.40;55.40;;;;;;5071172;28;19913;-86
2022/03/18 04:55:13;;;;;;;;;;;10.40;55.80;;;;;;5044592;28;19999;-86
2022/03/18 04:57:39;;;;;;;;;;;10.40;55.40;;;;;;5055196;28;20007;-86
2022/03/18 05:00:05;;;;;;;;;;;10.40;55.10;;;;;;5055332;28;19909;-86
2022/03/18 05:02:30;;;;;;;;;;;10.40;55.50;;;;;;5055409;28;19939;-86
2022/03/18 05:04:56;;;;;;;;;;;10.40;55.20;;;;;;5067115;28;20251;-86
2022/03/18 05:07:22;;;;;;;;;;;10.40;55.00;;;;;;5061417;28;19913;-86
2022/03/18 05:09:48;;;;;;;;;;;10.50;54.80;;;;;;5055140;28;19912;-86
2022/03/18 05:12:15;;;;;;;;;;;10.60;54.60;;;;;;5061049;28;19924;-86
2022/03/18 05:14:40;;;;;;;;;;;10.60;54.70;;;;;;5055370;28;19939;-86
2022/03/18 05:17:07;;;;;;;;;;;10.50;54.70;;;;;;5054952;28;20434;-86
2022/03/18 05:19:34;;;;;;;;;;;10.40;55.00;;;;;;5055021;28;20366;-86
2022/03/18 05:21:59;;;;;;;;;;;10.30;55.30;;;;;;5063426;28;19912;-86
2022/03/18 05:24:28;;;;;;;;;;;10.20;55.50;;;;;;5074797;28;20281;-86
2022/03/18 05:26:54;;;;;;;;;;;10.10;55.80;;;;;;5065171;28;19919;-86
2022/03/18 05:29:19;;;;;;;;;;;10.00;56.40;;;;;;5054793;28;19992;-86
2022/03/18 05:31:46;;;;;;;;;;;9.90;56.50;;;;;;5061021;28;19913;-86
2022/03/18 05:34:12;;;;;;;;;;;9.90;56.70;;;;;;5074649;28;19947;-86
2022/03/18 05:36:39;;;;;;;;;;;9.90;56.90;;;;;;5067432;28;19913;-86
2022/03/18 05:39:04;;;;;;;;;;;9.90;56.80;;;;;;5054289;28;19913;-86
2022/03/18 05:41:31;;;;;;;;;;;10.00;56.60;;;;;;5055288;28;19931;-86
2022/03/18 05:43:57;;;;;;;;;;;10.00;56.70;;;;;;5054260;28;19923;-86
2022/03/18 05:46:22;;;;;;;;;;;10.00;56.60;;;;;;5054674;28;20011;-85
2022/03/18 05:48:48;;;;;;;;;;;9.90;56.90;;;;;;5074400;28;20347;-86
2022/03/18 05:51:14;;;;;;;;;;;9.80;57.10;;;;;;5072277;28;19909;-86
2022/03/18 05:53:39;;;;;;;;;;;9.80;57.60;;;;;;5054073;28;19959;-86
2022/03/18 05:58:49;;;;;;;;;;;9.70;57.60;;;;;;5061906;28;19920;-86
2022/03/18 06:01:15;;;;;;;;;;;9.70;57.70;;;;;;5073490;28;19912;-86
2022/03/18 06:03:40;;;;;;;;;;;9.70;57.90;;;;;;5059094;28;19916;-86
2022/03/18 06:06:06;;;;;;;;;;;9.70;57.90;;;;;;5066040;28;19919;-86
2022/03/18 06:14:00;;;;;;;;;;;9.90;57.50;;;;;;5045657;28;19990;-86
2022/03/18 06:16:26;;;;;;;;;;;9.90;57.70;;;;;;5046015;28;19952;-86
2022/03/18 06:18:51;;;;;;;;;;;10.00;57.40;;;;;;5045131;28;19913;-86
2022/03/18 06:21:17;;;;;;;;;;;10.00;57.40;;;;;;5046734;28;19920;-86
2022/03/18 06:23:43;;;;;;;;;;;10.00;57.40;;;;;;5045662;28;19945;-86
2022/03/18 06:26:08;;;;;;;;;;;10.00;57.50;;;;;;5064297;28;19966;-86
2022/03/18 06:28:34;;;;;;;;;;;10.00;57.90;;;;;;5045766;28;19920;-86
2022/03/18 06:31:00;;;;;;;;;;;10.00;58.00;;;;;;5049064;28;19966;-86
2022/03/18 06:33:27;;;;;;;;;;;10.00;57.60;;;;;;5048650;28;19921;-86
2022/03/18 06:35:53;;;;;;;;;;;10.00;57.80;;;;;;5049376;28;20289;-86
2022/03/18 06:38:18;;;;;;;;;;;10.00;58.10;;;;;;5051664;28;19913;-86
2022/03/18 06:40:44;;;;;;;;;;;10.10;58.90;;;;;;5050944;22;20023;-86
2022/03/18 06:43:10;;;;;;;;;;;10.20;59.60;;;;;;5052818;28;19964;-87
2022/03/18 06:45:35;;;;;;;;;;;10.30;58.50;;;;;;5051644;28;19917;-86
2022/03/18 06:48:01;;;;;;;;;;;10.50;58.50;;;;;;5052012;28;20449;-87
2022/03/18 06:50:27;;;;;;;;;;;10.60;58.80;;;;;;5060384;28;19920;-86
2022/03/18 06:52:52;;;;;;;;;;;10.70;58.10;;;;;;5059726;28;19988;-86
2022/03/18 06:55:18;;;;;;;;;;;10.80;57.00;;;;;;5050828;28;19913;-86
2022/03/18 06:57:43;;;;;;;;;;;10.90;57.10;;;;;;5050485;28;19913;-86
2022/03/18 07:00:09;;;;;;;;;;;10.90;57.00;;;;;;5050309;28;19920;-86
2022/03/18 07:02:35;;;;;;;;;;;10.90;57.20;;;;;;5058528;28;19920;-86
2022/03/18 07:05:01;;;;;;;;;;;10.90;57.40;;;;;;5050003;28;19969;-86
2022/03/18 07:07:26;;;;;;;;;;;10.90;57.70;;;;;;5047395;28;20378;-86
2022/03/18 07:09:52;;;;;;;;;;;11.00;57.00;;;;;;5049140;28;20667;-86
2022/03/18 07:12:17;;;;;;;;;;;11.20;57.00;;;;;;5062510;28;19913;-86
2022/03/18 07:14:43;;;;;;;;;;;11.40;55.70;;;;;;5071028;28;20007;-87
2022/03/18 07:19:53;;;;;;;;;;;11.70;55.00;;;;;;5059851;28;19920;-86
2022/03/18 07:22:19;;;;;;;;;;;11.80;54.40;;;;;;5053309;28;19913;-86
2022/03/18 07:24:44;;;;;;;;;;;11.90;54.20;;;;;;5051849;28;19917;-86
2022/03/18 07:27:10;;;;;;;;;;;11.70;54.30;;;;;;5048570;28;19920;-86
2022/03/18 07:29:35;;;;;;;;;;;11.70;55.10;;;;;;5049715;28;19913;-86
2022/03/18 07:32:01;;;;;;;;;;;11.70;55.00;;;;;;5051510;28;19917;-86
2022/03/18 07:34:26;;;;;;;;;;;11.70;55.80;;;;;;5051798;28;19920;-86
2022/03/18 07:36:52;;;;;;;;;;;11.80;55.30;;;;;;5056410;28;20050;-86
2022/03/18 07:39:17;;;;;;;;;;;11.90;56.40;;;;;;5050890;28;20011;-86
2022/03/18 07:41:43;;;;;;;;;;;12.00;55.60;;;;;;5049568;28;19921;-86
2022/03/18 07:44:09;;;;;;;;;;;12.20;54.50;;;;;;5049536;28;19925;-86
2022/03/18 07:46:34;;;;;;;;;;;12.30;53.90;;;;;;5050209;28;19913;-86
2022/03/18 07:49:01;;;;;;;;;;;12.40;54.00;;;;;;5065661;28;19919;-86
2022/03/18 07:51:26;;;;;;;;;;;12.50;52.40;;;;;;5048381;28;19913;-86
2022/03/18 07:53:52;;;;;;;;;;;12.60;53.60;;;;;;5048822;28;20016;-86
2022/03/18 07:56:17;;;;;;;;;;;12.70;52.60;;;;;;5049437;28;20370;-86
2022/03/18 07:58:43;;;;;;;;;;;12.80;53.00;;;;;;5052117;28;20406;-86
2022/03/18 08:01:10;;;;;;;;;;;12.70;52.10;;;;;;5052986;28;19913;-86
2022/03/18 08:03:35;;;;;;;;;;;12.60;51.90;;;;;;5058682;28;20003;-86
2022/03/18 08:06:01;;;;;;;;;;;12.60;52.30;;;;;;5058984;28;20008;-86
2022/03/18 08:08:27;;;;;;;;;;;12.60;52.10;;;;;;5049464;28;20011;-86
2022/03/18 08:10:53;;;;;;;;;;;12.60;51.70;;;;;;5055101;28;19967;-86
2022/03/18 08:13:18;;;;;;;;;;;12.60;51.50;;;;;;5055272;28;19952;-86
2022/03/18 08:15:44;;;;;;;;;;;12.70;51.90;;;;;;5054913;28;20019;-86
2022/03/18 08:18:10;;;;;;;;;;;12.90;52.80;;;;;;5054378;28;19913;-86
2022/03/18 08:20:40;;;;;;;;;;;13.00;51.50;;;;;;5057594;28;19919;-86
2022/03/18 08:23:09;;;;;;;;;;;12.90;50.50;;;;;;5056661;28;20003;-86
2022/03/18 08:25:34;;;;;;;;;;;13.10;49.80;;;;;;5068880;28;19923;-86
2022/03/18 08:28:01;;;;;;;;;;;13.30;50.70;;;;;;5051278;28;20007;-86
2022/03/18 08:30:26;;;;;;;;;;;13.30;49.50;;;;;;5063779;28;20341;-86
2022/03/18 08:32:52;;;;;;;;;;;13.30;49.70;;;;;;5056679;28;19913;-86
2022/03/18 08:35:17;;;;;;;;;;;13.40;50.50;;;;;;5052856;28;19920;-86
2022/03/18 08:37:58;;;;;;;;;;;13.60;49.90;;;;;;5061458;28;19913;-86
2022/03/18 08:40:28;;;;;;;;;;;13.60;48.20;;;;;;5053708;28;20373;-87
2022/03/18 08:42:54;;;;;;;;;;;13.60;48.80;;;;;;5058700;28;20182;-86
2022/03/18 08:45:19;;;;;;;;;;;13.50;48.90;;;;;;5047728;28;20431;-86
2022/03/18 08:47:46;;;;;;;;;;;13.40;49.40;;;;;;5053383;28;19913;-86
2022/03/18 08:50:12;;;;;;;;;;;13.30;49.00;;;;;;5055935;28;19917;-86
2022/03/18 08:52:38;;;;;;;;;;;13.20;49.20;;;;;;5050452;28;19913;-86
2022/03/18 08:55:04;;;;;;;;;;;13.30;50.20;;;;;;5057787;28;20054;-86
2022/03/18 08:57:33;;;;;;;;;;;13.30;49.60;;;;;;5051637;28;19917;-87
2022/03/18 08:59:59;;;;;;;;;;;13.50;49.20;;;;;;5053486;28;19920;-87
2022/03/18 09:02:24;;;;;;;;;;;13.60;50.20;;;;;;5053724;28;19913;-87
2022/03/18 09:04:52;;;;;;;;;;;13.70;49.20;;;;;;5051035;28;20332;-87
2022/03/18 09:07:18;;;;;;;;;;;13.70;48.30;;;;;;5057801;28;20006;-86
2022/03/18 09:09:43;;;;;;;;;;;13.80;47.90;;;;;;5053817;28;19967;-86
2022/03/18 09:12:09;;;;;;;;;;;13.70;48.00;;;;;;5055769;28;19928;-87
2022/03/18 09:14:34;;;;;;;;;;;13.80;48.70;;;;;;5049167;28;19913;-87
2022/03/18 09:17:00;;;;;;;;;;;13.80;48.00;;;;;;5050115;28;19925;-86
2022/03/18 09:19:25;;;;;;;;;;;14.00;46.70;;;;;;5057632;28;19913;-87
2022/03/18 09:21:51;;;;;;;;;;;13.80;47.80;;;;;;5051758;28;19920;-87
2022/03/18 09:24:18;;;;;;;;;;;13.70;47.60;;;;;;5053871;28;19932;-86
2022/03/18 09:26:44;;;;;;;;;;;13.60;47.10;;;;;;5050403;28;19959;-86
2022/03/18 09:29:09;;;;;;;;;;;13.60;47.40;;;;;;5050235;28;19913;-86
2022/03/18 09:31:36;;;;;;;;;;;13.60;47.50;;;;;;5063704;28;20397;-87
2022/03/18 09:34:01;;;;;;;;;;;13.50;47.10;;;;;;5049789;28;20374;-86
2022/03/18 09:36:27;;;;;;;;;;;13.50;47.60;;;;;;5052070;28;19912;-86
2022/03/18 09:38:54;;;;;;;;;;;13.60;48.20;;;;;;5050497;28;20271;-86
2022/03/18 09:41:21;;;;;;;;;;;13.60;47.20;;;;;;5055805;28;19929;-86
2022/03/18 09:43:46;;;;;;;;;;;13.60;47.10;;;;;;5071916;28;19991;-87
2022/03/18 09:46:13;;;;;;;;;;;13.60;48.00;;;;;;5058283;28;19999;-87
2022/03/18 09:48:39;;;;;;;;;;;13.70;47.40;;;;;;5051043;28;19936;-86
2022/03/18 09:51:05;;;;;;;;;;;13.80;46.70;;;;;;5057337;28;19919;-86
2022/03/18 09:53:34;;;;;;;;;;;13.90;47.00;;;;;;5057604;28;20003;-87
2022/03/18 09:56:00;;;;;;;;;;;14.00;47.40;;;;;;5059883;28;20348;-87
2022/03/18 09:58:25;;;;;;;;;;;14.00;46.30;;;;;;5052230;28;19921;-86
2022/03/18 10:00:51;;;;;;;;;;;14.10;46.40;;;;;;5054870;28;19924;-87
2022/03/18 10:03:17;;;;;;;;;;;13.90;46.30;;;;;;5057150;28;20839;-86
2022/03/18 10:05:47;;;;;;;;;;;13.90;45.90;;;;;;5053416;28;19916;-86
2022/03/18 10:08:12;;;;;;;;;;;13.90;47.50;;;;;;5052008;28;19921;-86
2022/03/18 10:10:45;;;;;;;;;;;13.90;47.40;;;;;;5052098;28;19912;-86
2022/03/18 10:13:12;;;;;;;;;;;14.00;47.60;;;;;;5051773;28;19922;-86
2022/03/18 10:15:38;;;;;;;;;;;14.00;47.20;;;;;;5054414;28;19913;-87
2022/03/18 10:18:04;;;;;;;;;;;14.10;47.30;;;;;;5052647;28;19917;-87
2022/03/18 10:20:38;;;;;;;;;;;14.30;47.30;;;;;;5051490;28;19977;-87
2022/03/18 10:23:05;;;;;;;;;;;14.30;46.10;;;;;;5051129;28;19912;-87
2022/03/18 10:25:33;;;;;;;;;;;14.50;46.20;;;;;;5062547;28;19913;-86
2022/03/18 10:27:59;;;;;;;;;;;14.60;46.60;;;;;;5055937;28;20365;-86
2022/03/18 10:30:26;;;;;;;;;;;14.90;47.90;;;;;;5051229;28;19920;-86
2022/03/18 10:32:52;;;;;;;;;;;15.20;46.30;;;;;;5053521;28;20369;-87
2022/03/18 10:38:27;;;;;;;;;;;15.40;43.70;;;;;;5050977;28;19927;-87
2022/03/18 10:40:54;;;;;;;;;;;15.60;43.60;;;;;;5051808;28;19929;-86
2022/03/18 10:43:20;;;;;;;;;;;15.50;44.00;;;;;;5053064;28;19920;-86
2022/03/18 10:46:05;;;;;;;;;;;15.60;45.50;;;;;;5052476;28;19917;-87
2022/03/18 10:48:31;;;;;;;;;;;15.70;45.10;;;;;;5051347;28;19917;-87
2022/03/18 10:51:04;;;;;;;;;;;15.70;43.90;;;;;;5051494;28;20255;-86
2022/03/18 10:53:30;;;;;;;;;;;15.70;44.20;;;;;;5054305;28;19981;-87
2022/03/18 10:55:59;;;;;;;;;;;15.80;44.90;;;;;;5054077;28;19913;-87
2022/03/18 10:58:25;;;;;;;;;;;16.10;43.50;;;;;;5051313;28;19913;-86
2022/03/18 11:00:52;;;;;;;;;;;16.30;42.50;;;;;;5054957;28;19967;-86
2022/03/18 11:03:18;;;;;;;;;;;16.50;42.10;;;;;;5053728;28;20273;-87
2022/03/18 11:05:45;;;;;;;;;;;16.60;42.00;;;;;;5059086;28;19924;-87
2022/03/18 11:08:12;;;;;;;;;;;16.70;42.20;;;;;;5057231;28;19917;-87
2022/03/18 11:13:28;;;;;;;;;;;17.10;40.90;;;;;;5072131;28;19920;-87
2022/03/18 11:15:54;;;;;;;;;;;17.30;39.70;;;;;;5072919;28;19908;-86
2022/03/18 11:18:20;;;;;;;;;;;17.30;41.10;;;;;;5072013;28;20298;-87
2022/03/18 11:20:47;;;;;;;;;;;17.30;39.50;;;;;;5058942;28;19919;-86
2022/03/18 11:23:25;;;;;;;;;;;17.20;39.90;;;;;;5053955;28;19912;-87
2022/03/18 11:25:53;;;;;;;;;;;16.90;39.80;;;;;;5052886;28;19919;-87
2022/03/18 11:28:19;;;;;;;;;;;16.80;42.00;;;;;;5062919;28;20351;-87
2022/03/18 11:30:47;;;;;;;;;;;17.00;41.10;;;;;;5072790;28;19908;-87
2022/03/18 11:33:15;;;;;;;;;;;17.30;39.70;;;;;;5072838;28;19915;-87
2022/03/18 11:35:50;;;;;;;;;;;17.50;39.50;;;;;;5072824;28;20351;-87
2022/03/18 11:38:23;;;;;;;;;;;17.70;39.70;;;;;;5067089;28;19924;-87
2022/03/18 11:40:53;;;;;;;;;;;17.90;38.80;;;;;;5071562;28;19924;-87
2022/03/18 11:43:39;;;;;;;;;;;17.90;39.00;;;;;;5056272;28;20155;-87
2022/03/18 11:46:16;;;;;;;;;;;17.90;38.20;;;;;;5056362;28;19967;-87
2022/03/18 11:49:02;;;;;;;;;;;18.10;37.30;;;;;;5058579;28;19912;-87
2022/03/18 11:51:29;;;;;;;;;;;18.00;38.10;;;;;;5076692;28;19963;-87
2022/03/18 11:54:00;;;;;;;;;;;17.80;37.70;;;;;;5069008;28;19916;-87
2022/03/18 11:56:41;;;;;;;;;;;17.50;36.90;;;;;;5076574;28;19951;-87
2022/03/18 11:59:25;;;;;;;;;;;17.30;37.00;;;;;;5057398;28;19912;-87
2022/03/18 12:02:03;;;;;;;;;;;17.10;37.20;;;;;;5076795;28;19912;-87
2022/03/18 12:04:41;;;;;;;;;;;17.00;38.30;;;;;;5068720;28;19999;-87
2022/03/18 12:07:20;;;;;;;;;;;17.30;37.70;;;;;;5072890;28;19919;-87
2022/03/18 12:09:49;;;;;;;;;;;17.50;37.50;;;;;;5074162;28;19935;-86
2022/03/18 12:12:15;;;;;;;;;;;17.70;36.10;;;;;;5076244;28;19912;-87
2022/03/18 12:14:41;;;;;;;;;;;17.50;36.50;;;;;;5067664;28;19951;-87
2022/03/18 12:17:06;;;;;;;;;;;17.40;37.90;;;;;;5056076;28;20341;-87
2022/03/18 12:19:33;;;;;;;;;;;17.60;36.80;;;;;;5059154;28;20023;-87
2022/03/18 12:22:01;;;;;;;;;;;17.60;36.00;;;;;;5056108;28;19913;-86
2022/03/18 12:24:28;;;;;;;;;;;17.30;37.80;;;;;;5057024;28;19935;-87
2022/03/18 12:26:54;;;;;;;;;;;17.10;38.30;;;;;;5054953;28;20471;-87
2022/03/18 12:29:25;;;;;;;;;;;17.10;38.00;;;;;;5054379;28;19920;-86
2022/03/18 12:31:50;;;;;;;;;;;17.10;38.00;;;;;;5060476;28;20009;-87
2022/03/18 12:34:17;;;;;;;;;;;17.00;38.70;;;;;;5072758;28;19959;-87
2022/03/18 12:36:44;;;;;;;;;;;16.80;39.10;;;;;;5064585;28;19920;-87
2022/03/18 12:39:11;;;;;;;;;;;16.80;39.20;;;;;;5054757;28;19919;-87
2022/03/18 12:41:37;;;;;;;;;;;17.00;39.50;;;;;;5051915;28;19921;-86
2022/03/18 12:44:04;;;;;;;;;;;17.30;38.80;;;;;;5054320;28;19917;-87
2022/03/18 12:46:31;;;;;;;;;;;17.50;39.40;;;;;;5046970;28;19920;-86
2022/03/18 12:48:57;;;;;;;;;;;17.60;38.40;;;;;;5055402;28;19943;-87
2022/03/18 12:51:23;;;;;;;;;;;17.90;37.20;;;;;;5054559;28;20378;-87
2022/03/18 12:53:48;;;;;;;;;;;17.70;38.00;;;;;;5054018;28;20046;-86
2022/03/18 12:56:19;;;;;;;;;;;17.50;37.20;;;;;;5049734;28;20441;-87
2022/03/18 12:58:45;;;;;;;;;;;17.40;37.30;;;;;;5051883;28;20008;-87
2022/03/18 13:01:12;;;;;;;;;;;17.10;39.30;;;;;;5054529;28;19999;-86
2022/03/18 13:03:48;;;;;;;;;;;17.10;38.80;;;;;;5060379;28;19918;-86
2022/03/18 13:06:20;;;;;;;;;;;17.20;38.60;;;;;;5061041;28;19944;-86
2022/03/18 13:08:55;;;;;;;;;;;17.30;38.10;;;;;;5065432;28;19919;-86
2022/03/18 13:11:21;;;;;;;;;;;17.10;38.80;;;;;;5058844;28;19982;-87
2022/03/18 13:13:50;;;;;;;;;;;17.40;37.70;;;;;;5057537;28;19919;-86
2022/03/18 13:16:16;;;;;;;;;;;17.50;36.70;;;;;;5057955;28;19964;-86
2022/03/18 13:18:51;;;;;;;;;;;17.50;36.30;;;;;;5063566;28;19960;-86
2022/03/18 13:21:17;;;;;;;;;;;17.50;36.60;;;;;;5065389;28;20031;-86
2022/03/18 13:23:43;;;;;;;;;;;17.50;36.30;;;;;;5057376;28;20469;-87
2022/03/18 13:26:15;;;;;;;;;;;17.40;36.90;;;;;;5055234;28;19975;-86
2022/03/18 13:28:41;;;;;;;;;;;17.30;37.10;;;;;;5053457;28;19928;-86
2022/03/18 13:33:52;;;;;;;;;;;16.90;38.30;;;;;;5057518;28;20038;-86
2022/03/18 13:36:22;;;;;;;;;;;16.70;38.20;;;;;;5055212;28;19927;-86
2022/03/18 13:38:48;;;;;;;;;;;16.40;38.70;;;;;;5054649;28;19913;-86
2022/03/18 13:41:14;;;;;;;;;;;16.30;38.90;;;;;;5059621;28;19921;-86
2022/03/18 13:43:40;;;;;;;;;;;16.30;38.60;;;;;;5048099;28;19928;-86
2022/03/18 13:46:13;;;;;;;;;;;16.50;37.80;;;;;;5052915;28;20374;-87
2022/03/18 13:48:40;;;;;;;;;;;16.60;37.50;;;;;;5051365;28;19921;-87
2022/03/18 13:51:06;;;;;;;;;;;16.70;38.20;;;;;;5051517;28;19914;-86
2022/03/18 13:53:32;;;;;;;;;;;16.80;37.30;;;;;;5046897;28;19932;-87
2022/03/18 13:55:59;;;;;;;;;;;16.90;37.50;;;;;;5051453;28;20301;-87
2022/03/18 13:58:29;;;;;;;;;;;16.90;37.20;;;;;;5056005;28;20162;-87
2022/03/18 14:01:11;;;;;;;;;;;17.00;38.10;;;;;;5057714;28;20366;-87
2022/03/18 14:03:38;;;;;;;;;;;17.10;38.40;;;;;;5056541;28;19996;-86
2022/03/18 14:06:05;;;;;;;;;;;17.10;37.90;;;;;;5050341;28;20365;-87
2022/03/18 14:08:31;;;;;;;;;;;17.00;38.30;;;;;;5053295;28;20003;-87
2022/03/18 14:10:59;;;;;;;;;;;17.20;38.30;;;;;;5053338;28;19913;-86
2022/03/18 14:13:28;;;;;;;;;;;17.00;37.50;;;;;;5052898;28;19912;-86
2022/03/18 14:15:54;;;;;;;;;;;16.70;38.00;;;;;;5057282;28;19944;-86
2022/03/18 14:18:21;;;;;;;;;;;16.60;38.40;;;;;;5052278;28;19971;-86
2022/03/18 14:20:47;;;;;;;;;;;16.60;37.90;;;;;;5051409;28;19959;-86
2022/03/18 14:23:15;;;;;;;;;;;16.50;38.70;;;;;;5053228;28;20039;-86
2022/03/18 14:25:41;;;;;;;;;;;16.50;39.10;;;;;;5052520;28;19963;-87
2022/03/18 14:28:09;;;;;;;;;;;16.60;38.40;;;;;;5050801;28;19913;-86
2022/03/18 14:30:35;;;;;;;;;;;16.70;37.30;;;;;;5050726;28;19913;-87
2022/03/18 14:33:01;;;;;;;;;;;16.80;37.70;;;;;;5052241;28;20324;-87
2022/03/18 14:35:27;;;;;;;;;;;16.90;37.70;;;;;;5062929;28;19912;-86
2022/03/18 14:37:53;;;;;;;;;;;17.30;37.00;;;;;;5057148;28;19920;-87
2022/03/18 14:40:20;;;;;;;;;;;17.60;36.20;;;;;;5063236;22;20310;-87
2022/03/18 14:42:46;;;;;;;;;;;17.90;36.00;;;;;;5056271;28;19916;-87
2022/03/18 14:45:13;;;;;;;;;;;18.20;35.30;;;;;;5061467;28;19932;-87
2022/03/18 14:47:41;;;;;;;;;;;18.40;34.60;;;;;;5060448;28;20466;-87